Startpagina
METAR-TAF:

METAR-TAF

Vliegvelden :

Ushuaia, Argentinië

Aeropuerto Internacional Malvinas Argentinas

breedte: 54-48S, lengte: 068-19W, hoogte: 16 m

Actueel weer

Dit bericht is 11 minuten geleden gemaakt, om 21:00 UTC
Wind 29 kt uit het zuidwesten met uitschieters tot 39 kt
Temperatuur 5°C
Vochtigheid 87%
Druk 979 hPa
Zicht 10 km of meer
Gebroken wolken op 3000 ft
Gebroken wolken op 8000 ft
buien in de omgeving

METAR: SAWH 242100Z 23029G39KT 9999 VCSH BKN030 BKN080 05/03 Q0979

Tijdstip: 18:11 (21:11 UTC)

Verwachting

Dit bericht is 4 uur en het 11 minuten geleden gemaakt, om 17:00 UTC
Verwachting geldig van 24 om 18 UTC tot 25 om 18 UTC
Wind 30 kt uit het zuidwesten met uitschieters tot 45 kt
Zicht 10 km of meer
Gebroken wolken op 4000 ft
Gebroken wolken op 10000 ft
motregen
Wijzigt naar
van 25 om 06 UTC tot 25 om 08 UTC
Wind 20 kt uit het zuidzuidwesten met uitschieters tot 35 kt

TAF: SAWH 241700Z 2418/2518 23030G45KT 9999 DZ BKN040 BKN100 TX08/2419Z TN00/2512Z BECMG 2506/2508 20020G35KT

Waarnemingen en weersverwachtingen van meer dan 4000 vliegvelden (METAR en TAF).

De beschikbare stations zijn de gele en rode punten op de kaart.

Ga met uw muis naar het station om de naam te zien.

Klik dan om waarnemingen en weersverwachtingen te zien.

kaart wijzigen: klik op de groene knoppen met een zwart kruis om in te zoomen, op de groene knop met een streepje om uit te zoomen of op de groene pijlen voor aangrenzende kaarten.


METAR-TAF: